createdAt,value
2019-04-05T00:01:09.447Z,12.20
2019-04-05T00:03:36.905Z,12.03
2019-04-05T00:06:04.230Z,12.10
2019-04-05T00:08:31.706Z,12.10
2019-04-05T00:10:59.561Z,10.93
2019-04-05T00:13:26.934Z,11.40
2019-04-05T00:15:54.317Z,11.53
2019-04-05T00:18:21.532Z,12.00
2019-04-05T00:20:48.869Z,11.97
2019-04-05T00:23:16.659Z,11.67
2019-04-05T00:25:44.091Z,12.03
2019-04-05T00:28:11.440Z,11.57
2019-04-05T00:30:38.776Z,11.73
2019-04-05T00:33:06.147Z,11.63
2019-04-05T00:35:33.679Z,11.23
2019-04-05T00:38:01.065Z,12.07
2019-04-05T00:40:28.467Z,11.87
2019-04-05T00:42:55.840Z,11.77
2019-04-05T00:45:28.546Z,12.73
2019-04-05T00:47:52.377Z,12.00
2019-04-05T00:50:19.741Z,11.67
2019-04-05T00:52:47.064Z,12.37
2019-04-05T00:55:14.437Z,12.60
2019-04-05T00:57:41.901Z,11.57
2019-04-05T01:00:09.953Z,12.03
2019-04-05T01:02:37.409Z,11.57
2019-04-05T01:05:04.969Z,11.63
2019-04-05T01:07:32.321Z,11.93
2019-04-05T01:09:59.680Z,11.97
2019-04-05T01:12:26.936Z,11.37
2019-04-05T01:14:54.305Z,11.70
2019-04-05T01:17:25.171Z,11.80
2019-04-05T01:19:52.715Z,11.57
2019-04-05T01:22:24.385Z,11.63
2019-04-05T01:24:51.711Z,11.67
2019-04-05T01:27:20.115Z,12.40
2019-04-05T01:29:47.576Z,11.27
2019-04-05T01:32:15.011Z,11.47
2019-04-05T01:34:42.260Z,11.93
2019-04-05T01:37:09.506Z,11.90
2019-04-05T01:39:36.899Z,12.73
2019-04-05T01:42:04.259Z,12.93
2019-04-05T01:44:32.075Z,10.83
2019-04-05T01:46:59.376Z,12.27
2019-04-05T01:49:26.751Z,12.10
2019-04-05T01:51:54.368Z,11.87
2019-04-05T01:54:21.637Z,12.63
2019-04-05T01:56:48.971Z,11.47
2019-04-05T01:59:16.224Z,12.00
2019-04-05T02:01:43.592Z,11.33
2019-04-05T02:04:10.823Z,12.20
2019-04-05T02:06:38.139Z,12.27
2019-04-05T02:09:09.976Z,11.93
2019-04-05T02:11:37.260Z,12.13
2019-04-05T02:14:04.619Z,12.60
2019-04-05T02:16:32.039Z,11.63
2019-04-05T02:18:59.355Z,12.30
2019-04-05T02:21:26.723Z,12.03
2019-04-05T02:23:54.087Z,12.27
2019-04-05T02:26:21.435Z,12.07
2019-04-05T02:28:48.784Z,12.83
2019-04-05T02:31:16.219Z,12.13
2019-04-05T02:33:43.602Z,13.20
2019-04-05T02:36:10.936Z,12.57
2019-04-05T02:38:38.293Z,12.23
2019-04-05T02:41:05.925Z,12.30
2019-04-05T02:43:35.487Z,12.77
2019-04-05T02:46:03.407Z,12.53
2019-04-05T02:48:33.631Z,12.73
2019-04-05T02:51:02.737Z,12.37
2019-04-05T02:53:30.966Z,12.30
2019-04-05T02:56:02.700Z,12.33
2019-04-05T02:58:29.416Z,12.40
2019-04-05T03:00:57.498Z,12.13
2019-04-05T03:03:25.245Z,12.80
2019-04-05T03:05:53.505Z,12.93
2019-04-05T03:08:20.924Z,12.27
2019-04-05T03:11:07.902Z,11.80
2019-04-05T03:13:40.582Z,12.03
2019-04-05T03:16:12.646Z,12.33
2019-04-05T03:18:43.924Z,12.53
2019-04-05T03:21:11.905Z,12.33
2019-04-05T03:23:42.681Z,12.57
2019-04-05T03:26:13.788Z,11.50
2019-04-05T03:28:44.420Z,12.63
2019-04-05T03:31:12.168Z,13.37
2019-04-05T03:33:39.909Z,12.73
2019-04-05T03:36:07.987Z,12.47
2019-04-05T03:38:35.433Z,12.37
2019-04-05T03:41:03.601Z,11.73
2019-04-05T03:43:31.090Z,12.00
2019-04-05T03:45:58.629Z,12.63
2019-04-05T03:48:26.105Z,13.43
2019-04-05T03:50:53.466Z,12.87
2019-04-05T03:53:21.771Z,12.67
2019-04-05T03:55:49.342Z,12.53
2019-04-05T03:58:16.669Z,12.03
2019-04-05T04:00:44.042Z,11.83
2019-04-05T04:03:11.399Z,12.40
2019-04-05T04:05:38.932Z,13.63
2019-04-05T04:08:06.595Z,12.60
2019-04-05T04:10:33.956Z,11.63
2019-04-05T04:13:01.318Z,12.47
2019-04-05T04:15:28.951Z,11.73
2019-04-05T04:17:56.845Z,13.20
2019-04-05T04:20:45.537Z,12.30
2019-04-05T04:23:13.304Z,11.77
2019-04-05T04:25:41.818Z,12.07
2019-04-05T04:28:09.538Z,12.97
2019-04-05T04:30:37.039Z,12.77
2019-04-05T04:33:05.544Z,12.50
2019-04-05T04:35:33.484Z,12.67
2019-04-05T04:38:01.116Z,12.07
2019-04-05T04:40:28.836Z,12.17
2019-04-05T04:42:56.497Z,12.20
2019-04-05T04:45:24.464Z,13.07
2019-04-05T04:47:52.758Z,11.93
2019-04-05T04:50:21.503Z,12.17
2019-04-05T04:52:49.361Z,11.90
2019-04-05T04:55:16.912Z,12.40
2019-04-05T04:58:06.847Z,11.03
2019-04-05T05:00:35.549Z,12.30
2019-04-05T05:03:09.471Z,11.23
2019-04-05T05:05:45.220Z,10.40
2019-04-05T05:08:50.032Z,11.17
2019-04-05T05:11:26.250Z,11.27
2019-04-05T05:13:55.200Z,10.97
2019-04-05T05:16:26.462Z,11.03
2019-04-05T05:19:10.398Z,11.20
2019-04-05T05:22:21.339Z,11.73
2019-04-05T05:25:07.423Z,10.77
2019-04-05T05:27:32.921Z,11.20
2019-04-05T05:30:02.399Z,11.23
2019-04-05T05:32:30.747Z,10.80
2019-04-05T05:35:02.314Z,11.60
2019-04-05T05:37:29.156Z,10.90
2019-04-05T05:39:57.347Z,10.50
2019-04-05T05:42:26.529Z,11.17
2019-04-05T05:44:55.833Z,10.70
2019-04-05T05:47:24.422Z,11.17
2019-04-05T05:49:53.254Z,10.70
2019-04-05T05:52:22.209Z,10.80
2019-04-05T05:54:50.594Z,10.53
2019-04-05T05:57:19.079Z,10.60
2019-04-05T05:59:47.351Z,10.87
2019-04-05T06:02:15.947Z,10.27
2019-04-05T06:04:44.328Z,10.53
2019-04-05T06:07:12.510Z,10.47
2019-04-05T06:09:40.790Z,10.20
2019-04-05T06:12:09.255Z,10.40
2019-04-05T06:14:37.860Z,10.30
2019-04-05T06:17:06.143Z,10.60
2019-04-05T06:19:52.821Z,10.73
2019-04-05T06:22:39.953Z,10.70
2019-04-05T06:25:09.363Z,11.03
2019-04-05T06:27:41.207Z,10.43
2019-04-05T06:30:18.302Z,9.90
2019-04-05T06:32:50.879Z,10.13
2019-04-05T06:35:19.571Z,10.40
2019-04-05T06:37:47.843Z,10.30
2019-04-05T06:40:16.410Z,10.70
2019-04-05T06:42:48.813Z,10.20
2019-04-05T06:45:17.402Z,10.53
2019-04-05T06:51:58.955Z,9.83
2019-04-05T06:54:27.674Z,10.10
2019-04-05T06:57:04.009Z,10.27
2019-04-05T06:59:32.595Z,9.67
2019-04-05T07:02:20.591Z,10.33
2019-04-05T07:04:48.908Z,9.97
2019-04-05T07:07:18.621Z,10.37
2019-04-05T07:09:47.618Z,9.50
2019-04-05T07:12:35.444Z,10.37
2019-04-05T07:15:11.510Z,11.23
2019-04-05T07:17:41.933Z,9.10
2019-04-05T07:20:13.589Z,9.70
2019-04-05T07:22:42.075Z,9.53
2019-04-05T07:25:11.686Z,10.00
2019-04-05T07:27:40.273Z,10.13
2019-04-05T07:30:14.346Z,10.33
2019-04-05T07:32:53.490Z,10.77
2019-04-05T07:35:33.726Z,10.13
2019-04-05T07:38:02.153Z,10.03
2019-04-05T07:40:48.341Z,10.47
2019-04-05T07:43:17.338Z,9.93
2019-04-05T07:45:50.518Z,10.60
2019-04-05T07:48:19.600Z,10.33
2019-04-05T07:50:48.524Z,10.13
2019-04-05T07:53:17.116Z,10.57
2019-04-05T07:55:45.392Z,10.20
2019-04-05T07:58:15.720Z,10.10
2019-04-05T08:00:52.147Z,10.57
2019-04-05T08:03:29.883Z,10.33
2019-04-05T08:06:05.373Z,9.97
2019-04-05T08:08:46.807Z,10.27
2019-04-05T08:11:16.174Z,10.20
2019-04-05T08:13:47.342Z,10.63
2019-04-05T08:16:16.051Z,10.20
2019-04-05T08:18:56.654Z,10.90
2019-04-05T08:21:14.810Z,10.00
2019-04-05T08:23:46.194Z,10.63
2019-04-05T08:26:14.084Z,9.40
2019-04-05T08:28:42.484Z,11.07
2019-04-05T08:31:13.127Z,10.50
2019-04-05T08:33:41.233Z,10.37
2019-04-05T08:36:09.663Z,9.33
2019-04-05T08:38:40.802Z,10.80
2019-04-05T08:41:09.374Z,10.23
2019-04-05T08:43:37.679Z,10.53
2019-04-05T08:46:07.986Z,10.90
2019-04-05T08:48:36.188Z,11.03
2019-04-05T08:51:04.593Z,10.67
2019-04-05T08:53:34.650Z,10.80
2019-04-05T08:56:02.970Z,11.33
2019-04-05T08:58:33.897Z,10.87
2019-04-05T09:01:02.191Z,11.97
2019-04-05T09:03:32.596Z,11.10
2019-04-05T09:06:08.985Z,11.83
2019-04-05T09:08:37.676Z,12.23
2019-04-05T09:11:06.263Z,10.10
2019-04-05T09:13:34.135Z,11.03
2019-04-05T09:16:02.486Z,12.37
2019-04-05T09:18:30.889Z,11.40
2019-04-05T09:20:59.385Z,11.13
2019-04-05T09:23:27.862Z,11.63
2019-04-05T09:25:56.459Z,12.47
2019-04-05T09:28:26.991Z,12.60
2019-04-05T09:30:55.247Z,11.83
2019-04-05T09:33:23.759Z,12.13
2019-04-05T09:35:52.225Z,12.50
2019-04-05T09:38:20.419Z,13.07
2019-04-05T09:40:48.907Z,12.10
2019-04-05T09:43:17.111Z,12.33
2019-04-05T09:46:09.615Z,12.80
2019-04-05T09:48:37.900Z,12.20
2019-04-05T09:51:07.270Z,12.87
2019-04-05T09:53:37.836Z,12.40
2019-04-05T09:56:06.529Z,12.97
2019-04-05T09:58:34.807Z,12.53
2019-04-05T10:01:03.701Z,12.47
2019-04-05T10:03:41.909Z,13.27
2019-04-05T10:06:13.977Z,13.37
2019-04-05T10:08:44.918Z,12.53
2019-04-05T10:11:16.040Z,12.80
2019-04-05T10:13:44.037Z,12.40
2019-04-05T10:16:11.889Z,13.13
2019-04-05T10:18:43.053Z,12.93
2019-04-05T10:21:11.672Z,12.73
2019-04-05T10:23:39.614Z,13.00
2019-04-05T10:26:10.344Z,11.97
2019-04-05T10:28:38.425Z,12.93
2019-04-05T10:31:06.477Z,11.70
2019-04-05T10:33:34.477Z,12.30
2019-04-05T10:36:03.271Z,12.47
2019-04-05T10:38:35.951Z,11.87
2019-04-05T10:41:04.738Z,12.23
2019-04-05T10:43:36.263Z,11.73
2019-04-05T10:46:05.692Z,13.53
2019-04-05T10:48:35.368Z,11.17
2019-04-05T10:51:03.583Z,10.60
2019-04-05T10:53:34.329Z,11.63
2019-04-05T10:56:02.919Z,12.30
2019-04-05T10:58:32.941Z,11.73
2019-04-05T11:01:01.377Z,12.00
2019-04-05T11:03:29.708Z,11.83
2019-04-05T11:05:57.776Z,12.10
2019-04-05T11:08:29.337Z,12.03
2019-04-05T11:10:57.287Z,10.47
2019-04-05T11:13:26.427Z,11.23
2019-04-05T11:15:54.313Z,12.10
2019-04-05T11:18:21.948Z,11.20
2019-04-05T11:20:50.129Z,10.97
2019-04-05T11:23:36.904Z,12.77
2019-04-05T11:26:06.668Z,12.00
2019-04-05T11:28:34.468Z,11.63
2019-04-05T11:31:02.479Z,11.63
2019-04-05T11:33:30.410Z,11.97
2019-04-05T11:35:58.399Z,11.37
2019-04-05T11:38:26.963Z,11.77
2019-04-05T11:40:56.633Z,11.80
2019-04-05T11:43:30.956Z,11.60
2019-04-05T11:45:57.185Z,11.20
2019-04-05T11:48:25.370Z,11.47
2019-04-05T11:51:06.774Z,11.13
2019-04-05T11:53:34.543Z,10.60
2019-04-05T11:56:13.955Z,11.20
2019-04-05T11:58:32.461Z,10.70
2019-04-05T12:01:14.676Z,10.77
2019-04-05T12:03:42.500Z,10.93
2019-04-05T12:06:10.238Z,10.27
2019-04-05T12:08:38.396Z,10.33
2019-04-05T12:11:06.291Z,10.77
2019-04-05T12:13:34.085Z,10.40
2019-04-05T12:16:03.688Z,10.57
2019-04-05T12:18:32.534Z,11.23
2019-04-05T12:21:05.077Z,11.10
2019-04-05T12:23:33.451Z,10.70
2019-04-05T12:26:03.870Z,10.83
2019-04-05T12:28:30.371Z,10.80
2019-04-05T12:30:58.344Z,10.70
2019-04-05T12:33:26.318Z,10.77
2019-04-05T12:35:56.570Z,11.17
2019-04-05T12:38:31.480Z,10.77
2019-04-05T12:41:01.300Z,9.97
2019-04-05T12:43:36.769Z,9.77
2019-04-05T12:46:05.395Z,10.70
2019-04-05T12:48:33.284Z,9.87
2019-04-05T12:51:01.842Z,10.33
2019-04-05T12:53:31.238Z,10.30
2019-04-05T12:55:59.394Z,10.73
2019-04-05T12:58:27.669Z,11.03
2019-04-05T13:00:56.868Z,10.30
2019-04-05T13:03:25.285Z,10.53
2019-04-05T13:05:53.468Z,10.27
2019-04-05T13:08:53.839Z,10.10
2019-04-05T13:11:09.787Z,10.67
2019-04-05T13:13:38.301Z,10.47
2019-04-05T13:16:10.802Z,10.73
2019-04-05T13:18:38.033Z,10.80
2019-04-05T13:21:14.481Z,10.57
2019-04-05T13:23:35.965Z,9.60
2019-04-05T13:26:04.208Z,11.53
2019-04-05T13:28:32.007Z,11.23
2019-04-05T13:31:00.078Z,10.50
2019-04-05T13:33:29.072Z,9.13
2019-04-05T13:35:57.538Z,10.60
2019-04-05T13:38:25.376Z,10.67
2019-04-05T13:40:53.514Z,10.17
2019-04-05T13:43:21.262Z,10.00
2019-04-05T13:45:49.037Z,10.30
2019-04-05T13:48:17.305Z,10.67
2019-04-05T13:50:48.067Z,10.03
2019-04-05T13:53:16.229Z,10.23
2019-04-05T13:55:47.386Z,9.63
2019-04-05T13:58:15.253Z,10.07
2019-04-05T14:00:44.056Z,9.60
2019-04-05T14:03:11.640Z,9.70
2019-04-05T14:05:39.466Z,10.53
2019-04-05T14:11:46.137Z,10.47
2019-04-05T14:14:14.458Z,10.30
2019-04-05T14:16:43.085Z,10.67
2019-04-05T14:19:11.502Z,10.17
2019-04-05T14:21:40.791Z,10.13
2019-04-05T14:24:10.300Z,11.27
2019-04-05T14:26:57.835Z,10.30
2019-04-05T14:29:25.815Z,10.63
2019-04-05T14:31:53.680Z,10.00
2019-04-05T14:34:30.736Z,11.30
2019-04-05T14:37:01.526Z,11.13
2019-04-05T14:39:29.347Z,10.40
2019-04-05T14:42:09.175Z,10.60
2019-04-05T14:44:26.673Z,10.93
2019-04-05T14:46:55.867Z,10.80
2019-04-05T14:49:24.109Z,10.43
2019-04-05T14:51:54.954Z,10.50
2019-04-05T14:54:26.370Z,11.73
2019-04-05T14:56:54.186Z,10.57
2019-04-05T14:59:22.240Z,11.23
2019-04-05T15:01:50.595Z,11.43
2019-04-05T15:04:18.025Z,11.07
2019-04-05T15:06:45.554Z,11.13
2019-04-05T15:09:13.792Z,11.30
2019-04-05T15:11:42.005Z,11.73
2019-04-05T15:14:10.108Z,11.20
2019-04-05T15:16:37.816Z,11.47
2019-04-05T15:19:06.028Z,12.83
2019-04-05T15:21:34.873Z,11.07
2019-04-05T15:24:03.025Z,11.00
2019-04-05T15:26:31.025Z,11.43
2019-04-05T15:28:58.563Z,11.43
2019-04-05T15:31:26.987Z,11.57
2019-04-05T15:33:55.655Z,10.87
2019-04-05T15:36:24.633Z,11.60
2019-04-05T15:38:52.912Z,10.37
2019-04-05T15:41:20.835Z,10.20
2019-04-05T15:43:48.636Z,11.03
2019-04-05T15:46:16.291Z,11.47
2019-04-05T15:48:43.860Z,10.73
2019-04-05T15:51:11.434Z,11.33
2019-04-05T15:53:39.182Z,12.00
2019-04-05T15:56:06.963Z,13.07
2019-04-05T15:58:35.065Z,12.20
2019-04-05T16:01:04.404Z,12.10
2019-04-05T16:03:33.113Z,11.50
2019-04-05T16:06:00.818Z,11.97
2019-04-05T16:08:28.596Z,11.90
2019-04-05T16:10:56.570Z,11.60
2019-04-05T16:13:24.301Z,11.87
2019-04-05T16:15:51.957Z,11.30
2019-04-05T16:18:19.880Z,11.23
2019-04-05T16:20:47.799Z,11.70
2019-04-05T16:23:16.858Z,11.97
2019-04-05T16:25:44.923Z,11.20
2019-04-05T16:28:12.539Z,11.60
2019-04-05T16:30:43.940Z,11.60
2019-04-05T16:33:30.335Z,12.00
2019-04-05T16:35:59.511Z,12.83
2019-04-05T16:38:58.618Z,12.57
2019-04-05T16:41:27.310Z,12.63
2019-04-05T16:43:56.790Z,13.00
2019-04-05T16:46:24.959Z,12.50
2019-04-05T16:48:55.523Z,11.90
2019-04-05T16:51:24.320Z,11.40
2019-04-05T16:53:59.765Z,11.47
2019-04-05T16:56:28.433Z,12.50
2019-04-05T16:58:57.245Z,11.43
2019-04-05T17:05:13.931Z,11.90
2019-04-05T17:07:42.213Z,11.47
2019-04-05T17:10:10.903Z,10.93
2019-04-05T17:13:01.798Z,10.43
2019-04-05T17:19:55.423Z,10.57
2019-04-05T17:22:26.149Z,12.20
2019-04-05T17:25:31.216Z,10.97
2019-04-05T17:27:59.365Z,10.97
2019-04-05T17:33:43.713Z,11.63
2019-04-05T17:33:45.348Z,11.37
2019-04-05T17:39:55.647Z,10.50
2019-04-05T17:42:28.369Z,11.23
2019-04-05T17:48:06.176Z,11.13
2019-04-05T17:50:42.508Z,10.60
2019-04-05T17:54:13.755Z,10.90
2019-04-05T17:56:49.712Z,10.70
2019-04-05T17:59:29.138Z,10.63
2019-04-05T18:01:58.754Z,10.63
2019-04-05T18:04:30.529Z,10.73
2019-04-05T18:10:40.860Z,10.63
2019-04-05T18:13:09.936Z,10.27
2019-04-05T18:15:51.504Z,10.47
2019-04-05T18:18:08.568Z,10.97
2019-04-05T18:20:37.259Z,10.47
2019-04-05T18:23:07.905Z,10.63
2019-04-05T18:25:36.271Z,10.70
2019-04-05T18:32:41.572Z,9.70
2019-04-05T18:35:11.859Z,10.47
2019-04-05T18:37:40.898Z,9.80
2019-04-05T18:40:40.172Z,10.07
2019-04-05T18:43:13.280Z,9.90
2019-04-05T18:45:44.454Z,9.93
2019-04-05T18:48:15.564Z,10.03
2019-04-05T18:53:38.561Z,10.37
2019-04-05T18:56:09.023Z,9.63
2019-04-05T18:58:37.677Z,9.53
2019-04-05T19:01:08.895Z,9.10
2019-04-05T19:03:40.553Z,10.30
2019-04-05T19:06:19.473Z,9.67
2019-04-05T19:08:51.852Z,9.70
2019-04-05T19:11:20.515Z,10.40
2019-04-05T19:14:00.541Z,9.63
2019-04-05T19:16:19.412Z,10.00
2019-04-05T19:18:47.620Z,10.13
2019-04-05T19:21:16.118Z,9.67
2019-04-05T19:23:53.097Z,10.30
2019-04-05T19:26:35.651Z,10.37
2019-04-05T19:29:03.116Z,10.57
2019-04-05T19:48:54.614Z,10.63
2019-04-05T19:51:22.034Z,10.30
2019-04-05T19:53:49.456Z,10.63
2019-04-05T19:56:16.804Z,10.83
2019-04-05T19:58:44.157Z,10.73
2019-04-05T20:01:11.549Z,11.53
2019-04-05T20:03:38.914Z,11.33
2019-04-05T20:06:07.893Z,11.67
2019-04-05T20:08:35.389Z,10.53
2019-04-05T20:11:02.775Z,10.90
2019-04-05T20:13:29.996Z,11.83
2019-04-05T20:15:57.258Z,12.07
2019-04-05T20:18:24.499Z,10.87
2019-04-05T20:20:51.851Z,10.73
2019-04-05T20:23:19.207Z,11.13
2019-04-05T20:25:46.561Z,11.67
2019-04-05T20:28:13.949Z,11.00
2019-04-05T20:30:41.384Z,11.57
2019-04-05T20:33:08.738Z,11.73
2019-04-05T20:35:36.114Z,11.43
2019-04-05T20:38:03.401Z,11.70
2019-04-05T20:40:30.769Z,11.93
2019-04-05T20:42:59.817Z,11.57
2019-04-05T20:45:27.359Z,12.23
2019-04-05T20:47:54.727Z,11.13
2019-04-05T20:50:22.196Z,11.63
2019-04-05T20:52:49.462Z,11.60
2019-04-05T20:55:16.796Z,12.00
2019-04-05T20:57:44.486Z,12.00
2019-04-05T21:00:12.845Z,11.37
2019-04-05T21:02:40.063Z,11.20
2019-04-05T21:05:07.387Z,11.63
2019-04-05T21:07:34.616Z,11.37
2019-04-05T21:10:02.013Z,11.23
2019-04-05T21:12:29.369Z,11.57
2019-04-05T21:14:57.021Z,11.20
2019-04-05T21:17:24.235Z,11.13
2019-04-05T21:19:51.702Z,10.77
2019-04-05T21:22:19.106Z,11.27
2019-04-05T21:24:46.351Z,11.30
2019-04-05T21:27:13.991Z,11.37
2019-04-05T21:29:41.377Z,10.97
2019-04-05T21:32:08.737Z,11.53
2019-04-05T21:34:36.176Z,11.90
2019-04-05T21:37:03.740Z,10.63
2019-04-05T21:39:31.277Z,11.27
2019-04-05T21:41:58.505Z,11.27
2019-04-05T21:44:25.832Z,11.17
2019-04-05T21:46:53.220Z,10.60
2019-04-05T21:49:20.855Z,10.70
2019-04-05T21:51:48.287Z,10.40
2019-04-05T21:54:15.926Z,10.40
2019-04-05T21:56:45.477Z,11.00
2019-04-05T21:59:12.543Z,10.73
2019-04-05T22:01:40.075Z,10.47
2019-04-05T22:04:07.421Z,10.87
2019-04-05T22:06:34.651Z,10.77
2019-04-05T22:09:05.135Z,11.37
2019-04-05T22:11:32.469Z,10.43
2019-04-05T22:13:59.949Z,10.80
2019-04-05T22:16:27.184Z,10.90
2019-04-05T22:18:54.515Z,11.03
2019-04-05T22:21:21.791Z,10.83
2019-04-05T22:23:49.164Z,11.00
2019-04-05T22:26:16.496Z,11.43
2019-04-05T22:28:43.837Z,10.83
2019-04-05T22:31:11.193Z,9.83
2019-04-05T22:33:38.556Z,10.23
2019-04-05T22:36:06.072Z,11.13
2019-04-05T22:38:33.375Z,10.50
2019-04-05T22:41:01.109Z,10.53
2019-04-05T22:43:28.475Z,10.13
2019-04-05T22:45:55.868Z,10.17
2019-04-05T22:48:23.209Z,10.17
2019-04-05T22:50:50.582Z,10.87
2019-04-05T22:53:18.039Z,10.47
2019-04-05T22:55:46.403Z,10.77
2019-04-05T22:58:13.907Z,9.97
2019-04-05T23:00:41.276Z,10.67
2019-04-05T23:03:08.740Z,10.03
2019-04-05T23:05:36.098Z,10.43
2019-04-05T23:08:03.451Z,10.50
2019-04-05T23:10:31.012Z,10.03
2019-04-05T23:12:58.475Z,9.83
2019-04-05T23:15:25.881Z,9.73
2019-04-05T23:17:53.254Z,10.50
2019-04-05T23:20:20.593Z,9.17
2019-04-05T23:22:47.979Z,10.87
2019-04-05T23:25:21.771Z,10.17
2019-04-05T23:27:44.488Z,9.73
2019-04-05T23:30:12.247Z,9.77
2019-04-05T23:32:39.479Z,9.80
2019-04-05T23:35:06.994Z,9.47
2019-04-05T23:37:34.316Z,10.00
2019-04-05T23:40:01.666Z,10.63
2019-04-05T23:42:29.059Z,9.80
2019-04-05T23:44:56.506Z,10.37
2019-04-05T23:47:24.035Z,9.57
2019-04-05T23:49:51.397Z,10.10
2019-04-05T23:52:18.737Z,10.03
2019-04-05T23:54:46.184Z,9.87
2019-04-05T23:57:13.536Z,9.60
2019-04-05T23:59:40.851Z,10.10
